Time;durP1;ratioP1;P1;durP2;ratioP2;P2;SDS_P1;SDS_P2;PMS_P1;PMS_P2;Temp;Humidity;BMP_temperature;BMP_pressure;BME280_temperature;BME280_humidity;BME280_pressure;Samples;Min_cycle;Max_cycle;Signal;HPM_P1;HPM_P2
2021/05/05 00:00:51;;;;;;;0.90;0.80;;;17.20;99.90;;;;;;4988351;28;20081;-77
2021/05/05 00:03:18;;;;;;;1.85;0.88;;;17.20;99.90;;;;;;4993469;28;20559;-78
2021/05/05 00:05:46;;;;;;;1.40;1.02;;;17.30;99.90;;;;;;4993185;28;20068;-78
2021/05/05 00:08:13;;;;;;;3.45;1.10;;;17.40;99.90;;;;;;4988841;28;20472;-81
2021/05/05 00:10:40;;;;;;;1.65;1.30;;;17.50;99.90;;;;;;4993530;28;20077;-82
2021/05/05 00:13:08;;;;;;;1.30;0.93;;;17.50;99.90;;;;;;4987917;28;20027;-81
2021/05/05 00:15:35;;;;;;;0.77;0.57;;;17.60;99.90;;;;;;4992070;28;20109;-82
2021/05/05 00:18:03;;;;;;;1.63;0.70;;;17.50;99.90;;;;;;4991225;28;20014;-83
2021/05/05 00:20:30;;;;;;;1.13;0.60;;;17.40;99.90;;;;;;4993793;28;20062;-82
2021/05/05 00:22:58;;;;;;;1.15;0.80;;;17.40;99.90;;;;;;4990682;28;20113;-82
2021/05/05 00:25:25;;;;;;;1.17;1.08;;;17.40;99.90;;;;;;4993506;28;20022;-83
2021/05/05 00:27:53;;;;;;;0.80;0.60;;;17.50;99.90;;;;;;4989745;28;20076;-77
2021/05/05 00:30:22;;;;;;;0.80;0.80;;;17.40;99.90;;;;;;4990280;28;20465;-80
2021/05/05 00:32:50;;;;;;;3.08;1.13;;;17.40;99.90;;;;;;4991420;28;20389;-81
2021/05/05 00:35:18;;;;;;;0.93;0.65;;;17.40;99.90;;;;;;4990210;28;20043;-81
2021/05/05 00:37:46;;;;;;;0.75;0.70;;;17.40;99.90;;;;;;4989995;28;20018;-78
2021/05/05 00:40:14;;;;;;;1.52;0.75;;;17.40;99.90;;;;;;4993162;28;20022;-79
2021/05/05 00:42:42;;;;;;;2.40;0.90;;;17.40;99.90;;;;;;4990927;28;20358;-77
2021/05/05 00:45:12;;;;;;;0.70;0.70;;;17.40;99.90;;;;;;4992323;28;20033;-79
2021/05/05 00:47:40;;;;;;;1.30;1.00;;;17.40;99.90;;;;;;4987429;28;20026;-77
2021/05/05 00:50:10;;;;;;;0.90;0.80;;;17.40;99.90;;;;;;4991326;28;20057;-78
2021/05/05 00:52:38;;;;;;;1.15;0.60;;;17.40;99.90;;;;;;4990306;28;20029;-77
2021/05/05 00:55:07;;;;;;;1.85;0.70;;;17.40;99.90;;;;;;4993212;28;20038;-77
2021/05/05 00:57:34;;;;;;;1.35;0.57;;;17.30;99.90;;;;;;4989359;28;20026;-78
2021/05/05 01:00:03;;;;;;;2.33;0.50;;;17.30;99.90;;;;;;4987327;28;20038;-77
2021/05/05 01:02:31;;;;;;;1.25;0.88;;;17.30;99.90;;;;;;4996982;28;20037;-80
2021/05/05 01:05:00;;;;;;;1.02;0.52;;;17.40;99.90;;;;;;4995713;28;20047;-81
2021/05/05 01:07:28;;;;;;;1.58;1.10;;;17.50;99.90;;;;;;4997354;28;20034;-80
2021/05/05 01:09:56;;;;;;;1.23;0.90;;;17.60;99.90;;;;;;4996003;28;20412;-80
2021/05/05 01:12:24;;;;;;;1.77;1.67;;;17.60;99.90;;;;;;5010961;28;20018;-80
2021/05/05 01:14:51;;;;;;;2.42;0.98;;;17.70;99.90;;;;;;5022089;28;20049;-77
2021/05/05 01:17:18;;;;;;;2.08;0.90;;;17.80;99.90;;;;;;5002685;28;20034;-79
2021/05/05 01:19:49;;;;;;;1.45;1.15;;;17.90;99.90;;;;;;4992760;28;20061;-81
2021/05/05 01:22:18;;;;;;;2.28;1.00;;;18.00;99.90;;;;;;4995208;28;20094;-78
2021/05/05 01:24:46;;;;;;;1.52;0.90;;;18.10;99.90;;;;;;4991184;28;20044;-77
2021/05/05 01:27:13;;;;;;;0.80;0.60;;;18.30;99.90;;;;;;4992582;28;20030;-77
2021/05/05 01:29:41;;;;;;;2.05;0.80;;;18.30;99.90;;;;;;4994720;28;20026;-80
2021/05/05 01:32:08;;;;;;;0.77;0.68;;;18.30;99.90;;;;;;4995894;28;20026;-85
2021/05/05 01:34:36;;;;;;;2.08;0.60;;;18.40;99.90;;;;;;4995791;28;20034;-81
2021/05/05 01:37:04;;;;;;;2.35;0.68;;;18.40;99.90;;;;;;4997266;28;20063;-78
2021/05/05 01:39:32;;;;;;;1.58;0.65;;;18.30;99.90;;;;;;4991324;28;20030;-79
2021/05/05 01:42:00;;;;;;;1.88;0.50;;;18.40;99.90;;;;;;4995272;28;20519;-80
2021/05/05 01:44:53;;;;;;;1.10;0.68;;;18.40;99.90;;;;;;5000049;28;20027;-80
2021/05/05 01:47:21;;;;;;;0.95;0.55;;;18.50;99.90;;;;;;4993553;28;20122;-79
2021/05/05 01:49:49;;;;;;;1.33;0.40;;;18.50;99.90;;;;;;4996523;28;20046;-79
2021/05/05 01:52:18;;;;;;;0.68;0.40;;;18.50;99.90;;;;;;4991793;28;20415;-79
2021/05/05 01:54:46;;;;;;;1.60;0.55;;;18.50;99.90;;;;;;4998047;28;20102;-79
2021/05/05 01:57:29;;;;;;;1.88;0.50;;;18.40;99.90;;;;;;4993821;28;20070;-80
2021/05/05 01:59:56;;;;;;;1.05;0.60;;;18.40;99.80;;;;;;4996894;28;20413;-80
2021/05/05 02:02:27;;;;;;;2.05;0.73;;;18.40;99.90;;;;;;4992068;28;20113;-80
2021/05/05 02:04:55;;;;;;;0.50;0.32;;;18.30;99.90;;;;;;4992956;28;20089;-78
2021/05/05 02:07:23;;;;;;;1.02;0.40;;;18.10;99.90;;;;;;4997012;28;20026;-78
2021/05/05 02:09:51;;;;;;;1.00;0.50;;;18.00;99.90;;;;;;4997373;28;20022;-78
2021/05/05 02:12:19;;;;;;;2.15;0.70;;;18.00;99.90;;;;;;4995604;28;20114;-79
2021/05/05 02:14:47;;;;;;;0.88;0.50;;;17.90;99.90;;;;;;4996369;28;20073;-78
2021/05/05 02:17:17;;;;;;;1.50;0.82;;;18.00;99.90;;;;;;4992969;28;20022;-79
2021/05/05 02:19:45;;;;;;;2.35;0.75;;;17.90;99.90;;;;;;4994000;28;20109;-80
2021/05/05 02:22:12;;;;;;;1.90;0.80;;;17.90;99.90;;;;;;4995101;28;20723;-81
2021/05/05 02:24:40;;;;;;;2.17;0.80;;;17.90;99.90;;;;;;4994611;28;20156;-80
2021/05/05 02:27:08;;;;;;;4.28;1.15;;;17.90;99.90;;;;;;4993959;28;20038;-81
2021/05/05 02:29:37;;;;;;;4.88;1.05;;;17.80;99.90;;;;;;4997593;28;20026;-79
2021/05/05 02:32:09;;;;;;;3.80;1.35;;;17.70;99.90;;;;;;5000998;28;20038;-82
2021/05/05 02:34:37;;;;;;;3.33;1.23;;;17.60;99.90;;;;;;5004217;28;20128;-82
2021/05/05 02:37:09;;;;;;;2.47;0.88;;;17.60;99.90;;;;;;4996060;28;21414;-81
2021/05/05 02:39:42;;;;;;;1.10;0.80;;;17.50;99.90;;;;;;4996290;28;20082;-80
2021/05/05 02:42:13;;;;;;;2.45;0.95;;;17.70;99.90;;;;;;4997716;28;20488;-79
2021/05/05 02:44:41;;;;;;;1.70;1.00;;;17.80;99.90;;;;;;4998278;28;20507;-80
2021/05/05 02:47:08;;;;;;;1.50;1.33;;;18.00;99.90;;;;;;4996796;28;20041;-82
2021/05/05 02:49:37;;;;;;;1.80;1.15;;;18.30;99.90;;;;;;4993914;28;20153;-81
2021/05/05 02:52:05;;;;;;;2.75;1.25;;;18.50;99.90;;;;;;4997901;28;20072;-79
2021/05/05 02:54:33;;;;;;;1.95;0.80;;;18.70;99.90;;;;;;4993905;28;20396;-80
2021/05/05 02:57:01;;;;;;;2.42;1.00;;;18.90;99.90;;;;;;4993241;28;20053;-79
2021/05/05 02:59:29;;;;;;;0.75;0.70;;;18.90;99.90;;;;;;4992918;28;20491;-78
2021/05/05 03:01:59;;;;;;;1.38;0.50;;;19.10;99.90;;;;;;4994250;28;20032;-79
2021/05/05 03:04:27;;;;;;;0.70;0.50;;;19.10;99.90;;;;;;4993459;28;20161;-81
2021/05/05 03:06:55;;;;;;;1.98;0.80;;;19.00;99.90;;;;;;4993126;28;20470;-80
2021/05/05 03:09:26;;;;;;;0.68;0.65;;;19.10;99.90;;;;;;4997508;28;20104;-80
2021/05/05 03:11:55;;;;;;;1.88;1.10;;;18.90;99.90;;;;;;4998882;28;20033;-79
2021/05/05 03:14:27;;;;;;;1.98;1.08;;;18.80;99.90;;;;;;4992167;28;20034;-78
2021/05/05 03:16:56;;;;;;;1.40;1.17;;;18.70;99.90;;;;;;4990198;28;20176;-80
2021/05/05 03:19:24;;;;;;;2.53;1.20;;;18.60;99.90;;;;;;4999168;28;20030;-79
2021/05/05 03:21:51;;;;;;;1.48;1.30;;;18.80;99.90;;;;;;4995372;28;20029;-78
2021/05/05 03:24:19;;;;;;;1.63;1.20;;;19.10;99.90;;;;;;4991085;28;20881;-79
2021/05/05 03:26:46;;;;;;;2.58;1.25;;;19.30;99.90;;;;;;4994722;28;20026;-79
2021/05/05 03:29:16;;;;;;;0.98;0.88;;;19.40;99.90;;;;;;4993741;28;20030;-79
2021/05/05 03:31:45;;;;;;;2.22;1.42;;;19.40;99.90;;;;;;4992757;28;20034;-80
2021/05/05 03:34:14;;;;;;;3.40;1.10;;;19.50;99.90;;;;;;4991651;28;20034;-79
2021/05/05 03:36:41;;;;;;;1.67;0.77;;;19.60;99.90;;;;;;4996878;28;20058;-79
2021/05/05 03:39:09;;;;;;;1.25;0.60;;;19.80;99.90;;;;;;4988516;28;20500;-81
2021/05/05 03:41:37;;;;;;;1.63;0.60;;;19.80;99.90;;;;;;4994521;28;20030;-83
2021/05/05 03:44:07;;;;;;;3.13;1.48;;;19.80;99.10;;;;;;4989742;28;20034;-79
2021/05/05 03:46:40;;;;;;;1.20;0.63;;;19.90;99.40;;;;;;4995309;28;20091;-79
2021/05/05 03:49:08;;;;;;;1.27;0.73;;;19.80;99.50;;;;;;4992078;28;20123;-80
2021/05/05 03:51:37;;;;;;;2.60;0.60;;;19.90;99.40;;;;;;4992376;28;20138;-81
2021/05/05 03:54:05;;;;;;;1.48;0.43;;;20.00;99.00;;;;;;4987673;28;20034;-79
2021/05/05 03:56:32;;;;;;;1.63;0.73;;;20.10;98.80;;;;;;4991564;28;20029;-79
2021/05/05 03:59:00;;;;;;;1.88;0.52;;;20.00;99.20;;;;;;4994376;28;20038;-79
2021/05/05 04:01:28;;;;;;;2.17;0.50;;;19.90;98.60;;;;;;4993683;28;20396;-81
2021/05/05 04:03:55;;;;;;;1.73;0.40;;;20.00;99.00;;;;;;4991235;28;20093;-79
2021/05/05 04:06:23;;;;;;;1.35;0.45;;;20.00;98.60;;;;;;4988947;28;20037;-78
2021/05/05 04:08:50;;;;;;;2.08;0.40;;;20.00;98.70;;;;;;4996877;28;20148;-79
2021/05/05 04:11:18;;;;;;;1.17;0.30;;;19.80;98.50;;;;;;4997825;28;20029;-78
2021/05/05 04:13:46;;;;;;;1.73;0.40;;;19.70;98.60;;;;;;4991168;28;20034;-80
2021/05/05 04:16:13;;;;;;;1.73;0.57;;;19.80;98.60;;;;;;4990790;28;20030;-79
2021/05/05 04:18:41;;;;;;;1.77;0.50;;;19.90;98.10;;;;;;4994308;28;20026;-80
2021/05/05 04:21:10;;;;;;;1.00;0.40;;;20.00;98.30;;;;;;4997513;28;20030;-82
2021/05/05 04:23:38;;;;;;;1.73;0.60;;;19.90;98.40;;;;;;4993281;28;20093;-82
2021/05/05 04:26:09;;;;;;;1.25;0.63;;;19.80;98.20;;;;;;4994352;28;20029;-78
2021/05/05 04:28:37;;;;;;;2.70;1.00;;;19.80;98.40;;;;;;4994016;28;20097;-78
2021/05/05 04:31:07;;;;;;;2.80;1.10;;;19.90;98.60;;;;;;4991734;28;20405;-80
2021/05/05 04:33:34;;;;;;;1.90;0.98;;;20.00;98.30;;;;;;4991360;28;20041;-79
2021/05/05 04:36:02;;;;;;;1.52;0.77;;;20.20;98.40;;;;;;4995024;28;20026;-78
2021/05/05 04:38:29;;;;;;;2.17;0.98;;;20.20;97.70;;;;;;5000270;28;20034;-76
2021/05/05 04:40:58;;;;;;;1.48;0.75;;;20.10;97.80;;;;;;4992986;28;20088;-78
2021/05/05 04:43:25;;;;;;;1.92;0.70;;;20.10;97.80;;;;;;4994932;28;20022;-78
2021/05/05 04:45:53;;;;;;;1.50;0.40;;;20.10;97.60;;;;;;4989320;28;20038;-78
2021/05/05 04:48:20;;;;;;;0.90;0.45;;;20.20;97.20;;;;;;4992391;28;20478;-78
2021/05/05 04:50:48;;;;;;;1.48;0.80;;;20.30;97.40;;;;;;4996501;28;20047;-79
2021/05/05 04:53:15;;;;;;;1.02;0.30;;;20.30;96.80;;;;;;4999755;28;20080;-78
2021/05/05 04:55:45;;;;;;;1.48;0.50;;;20.40;97.00;;;;;;4999909;28;20034;-78
2021/05/05 04:58:12;;;;;;;2.08;0.28;;;20.50;96.60;;;;;;4999735;28;20691;-77
2021/05/05 05:00:40;;;;;;;1.25;0.35;;;20.40;96.50;;;;;;4989733;28;20396;-79
2021/05/05 05:03:07;;;;;;;0.82;0.20;;;20.40;95.90;;;;;;4994249;28;20025;-77
2021/05/05 05:05:38;;;;;;;2.25;0.30;;;20.50;96.20;;;;;;4998734;28;20029;-80
2021/05/05 05:08:05;;;;;;;0.90;0.30;;;20.40;95.70;;;;;;4995165;28;20030;-80
2021/05/05 05:10:33;;;;;;;1.65;0.20;;;20.30;95.90;;;;;;4998564;28;20034;-80
2021/05/05 05:13:03;;;;;;;1.15;0.60;;;20.30;96.20;;;;;;4996014;28;20110;-80
2021/05/05 05:15:34;;;;;;;0.22;0.10;;;20.20;95.60;;;;;;4997283;28;20042;-81
2021/05/05 05:18:01;;;;;;;1.42;0.20;;;20.20;96.10;;;;;;4997187;28;20030;-78
2021/05/05 05:20:29;;;;;;;1.42;0.20;;;20.00;96.30;;;;;;5000891;28;20038;-79
2021/05/05 05:22:56;;;;;;;0.57;0.20;;;20.00;96.50;;;;;;4998207;28;20105;-78
2021/05/05 05:25:26;;;;;;;1.23;0.10;;;19.90;96.60;;;;;;4996666;28;20014;-81
2021/05/05 05:27:54;;;;;;;0.10;0.10;;;19.90;96.40;;;;;;4999177;28;20053;-79
2021/05/05 05:30:23;;;;;;;0.80;0.17;;;19.90;96.10;;;;;;5000217;28;20130;-80
2021/05/05 05:32:50;;;;;;;1.17;0.20;;;19.90;95.90;;;;;;5000741;28;20088;-81
2021/05/05 05:35:19;;;;;;;0.50;0.13;;;19.90;95.40;;;;;;4998264;28;20037;-81
2021/05/05 05:37:46;;;;;;;0.80;0.45;;;19.90;95.40;;;;;;5002272;28;20034;-81
2021/05/05 05:40:15;;;;;;;0.40;0.10;;;19.90;95.20;;;;;;4998881;28;20034;-81
2021/05/05 05:42:43;;;;;;;2.00;0.70;;;19.90;94.90;;;;;;4998443;28;20035;-79
2021/05/05 05:45:11;;;;;;;0.63;0.20;;;19.70;95.40;;;;;;4996423;28;20061;-79
2021/05/05 05:47:40;;;;;;;0.32;0.10;;;19.60;96.00;;;;;;4993571;28;20485;-80
2021/05/05 05:50:09;;;;;;;0.77;0.10;;;19.60;95.80;;;;;;4994763;28;20105;-80
2021/05/05 05:52:36;;;;;;;0.90;0.20;;;19.50;95.60;;;;;;4996828;28;20125;-80
2021/05/05 05:55:06;;;;;;;1.60;0.40;;;19.50;95.90;;;;;;4993112;28;21566;-79
2021/05/05 05:57:33;;;;;;;1.08;0.20;;;19.70;95.80;;;;;;4996428;28;20484;-82
2021/05/05 06:00:01;;;;;;;0.82;0.20;;;19.80;95.50;;;;;;4998398;28;20605;-81
2021/05/05 06:02:28;;;;;;;1.23;0.10;;;19.80;95.30;;;;;;4994232;28;20018;-82
2021/05/05 06:04:56;;;;;;;3.22;0.45;;;19.70;95.60;;;;;;4995654;28;20109;-81
2021/05/05 06:07:23;;;;;;;0.25;0.10;;;19.60;95.20;;;;;;4992615;28;20404;-80
2021/05/05 06:09:51;;;;;;;0.90;0.10;;;19.40;95.60;;;;;;4998380;28;20081;-82
2021/05/05 06:12:18;;;;;;;1.05;0.90;;;19.30;96.20;;;;;;4995987;28;20465;-81
2021/05/05 06:14:46;;;;;;;0.65;0.13;;;19.30;96.30;;;;;;4997288;28;20054;-81
2021/05/05 06:17:14;;;;;;;1.00;0.15;;;19.20;95.80;;;;;;4995624;28;20492;-82
2021/05/05 06:19:41;;;;;;;1.85;0.20;;;19.10;96.10;;;;;;4997085;28;20030;-82
2021/05/05 06:22:08;;;;;;;2.10;0.20;;;19.10;95.90;;;;;;4995536;28;20022;-82
2021/05/05 06:24:36;;;;;;;1.27;0.20;;;19.10;96.50;;;;;;4998099;28;20049;-81
2021/05/05 06:27:05;;;;;;;1.48;0.40;;;19.00;96.50;;;;;;4994201;28;20129;-82
2021/05/05 06:29:33;;;;;;;1.70;0.43;;;19.00;96.70;;;;;;4995528;28;20029;-72
2021/05/05 06:32:00;;;;;;;0.57;0.20;;;18.90;96.80;;;;;;4991807;28;20062;-73
2021/05/05 06:34:28;;;;;;;1.48;0.35;;;18.90;96.70;;;;;;4993872;28;20034;-74
2021/05/05 06:36:55;;;;;;;1.55;0.38;;;18.70;96.80;;;;;;4992786;28;20035;-75
2021/05/05 06:39:23;;;;;;;2.08;0.30;;;18.70;97.10;;;;;;4994147;28;20102;-75
2021/05/05 06:41:50;;;;;;;1.17;0.20;;;18.70;97.20;;;;;;4993540;28;20030;-76
2021/05/05 06:44:17;;;;;;;0.60;0.20;;;18.70;97.10;;;;;;4990823;28;20056;-72
2021/05/05 06:46:45;;;;;;;1.48;0.20;;;18.70;97.20;;;;;;4993811;28;20080;-72
2021/05/05 06:49:13;;;;;;;0.28;0.10;;;18.70;97.00;;;;;;4992584;28;20084;-76
2021/05/05 06:51:41;;;;;;;3.78;0.50;;;18.70;97.00;;;;;;4990678;28;20047;-74
2021/05/05 06:54:09;;;;;;;1.83;0.20;;;18.70;97.20;;;;;;4994615;28;20042;-73
2021/05/05 06:56:37;;;;;;;0.40;0.10;;;18.70;97.20;;;;;;4994358;28;20069;-73
2021/05/05 06:59:04;;;;;;;2.55;0.20;;;18.60;97.50;;;;;;4998473;28;20030;-74
2021/05/05 07:01:32;;;;;;;1.42;0.57;;;18.60;97.60;;;;;;4991381;28;20036;-73
2021/05/05 07:03:59;;;;;;;1.92;0.50;;;18.50;97.70;;;;;;4993290;28;20044;-74
2021/05/05 07:06:27;;;;;;;1.13;0.40;;;18.50;97.80;;;;;;4994450;28;20057;-74
2021/05/05 07:08:54;;;;;;;1.60;0.20;;;18.40;98.00;;;;;;4991072;28;20480;-75
2021/05/05 07:11:21;;;;;;;1.15;0.32;;;18.30;98.10;;;;;;4993000;28;20100;-74
2021/05/05 07:13:49;;;;;;;1.88;0.30;;;18.30;98.10;;;;;;4993793;28;20072;-80
2021/05/05 07:16:16;;;;;;;0.80;0.10;;;18.30;98.20;;;;;;4995106;28;20018;-83
2021/05/05 07:18:44;;;;;;;1.55;0.20;;;18.10;98.10;;;;;;4998570;28;20035;-81
2021/05/05 07:21:11;;;;;;;1.25;0.30;;;18.00;98.50;;;;;;4997200;28;20053;-81
2021/05/05 07:23:38;;;;;;;0.52;0.10;;;18.00;98.50;;;;;;4991744;28;20022;-81
2021/05/05 07:26:06;;;;;;;1.48;0.30;;;17.90;98.70;;;;;;4995779;28;20049;-81
2021/05/05 07:28:33;;;;;;;2.10;0.85;;;17.80;99.00;;;;;;4994951;28;20018;-80
2021/05/05 07:31:03;;;;;;;0.77;0.20;;;17.80;98.80;;;;;;4997599;28;20029;-81
2021/05/05 07:33:31;;;;;;;2.03;0.40;;;17.80;98.80;;;;;;4998828;28;20501;-81
2021/05/05 07:35:59;;;;;;;2.15;0.20;;;17.80;99.10;;;;;;4992889;28;20093;-81
2021/05/05 07:49:43;;;;;;;1.27;0.30;;;17.80;98.90;;;;;;4986050;28;20042;-81
2021/05/05 07:52:11;;;;;;;1.95;0.60;;;17.80;99.00;;;;;;4996295;28;20022;-81
2021/05/05 07:54:39;;;;;;;1.70;0.32;;;17.70;99.10;;;;;;4995262;28;20046;-82
2021/05/05 07:57:07;;;;;;;0.80;0.30;;;17.70;99.40;;;;;;4989780;28;20061;-82
2021/05/05 07:59:37;;;;;;;1.88;0.20;;;17.60;99.40;;;;;;4997464;28;20046;-81
2021/05/05 08:02:07;;;;;;;0.30;0.20;;;17.60;99.50;;;;;;4994896;28;20484;-83
2021/05/05 08:04:35;;;;;;;1.30;0.30;;;17.50;99.50;;;;;;4995516;28;20091;-81
2021/05/05 08:07:02;;;;;;;1.83;0.30;;;17.50;99.60;;;;;;4993653;28;20488;-80
2021/05/05 08:09:30;;;;;;;1.13;0.20;;;17.40;99.90;;;;;;4998891;28;20538;-82
2021/05/05 08:11:57;;;;;;;1.42;0.40;;;17.40;99.90;;;;;;5001605;28;20124;-81
2021/05/05 08:14:26;;;;;;;3.10;0.40;;;17.30;99.90;;;;;;5012563;28;20042;-81
2021/05/05 08:16:53;;;;;;;1.45;0.30;;;17.30;99.90;;;;;;5002982;28;20040;-79
2021/05/05 08:19:21;;;;;;;0.95;0.25;;;17.30;99.90;;;;;;4992805;28;20368;-81
2021/05/05 08:21:50;;;;;;;5.90;0.60;;;17.30;99.90;;;;;;4992656;28;20042;-81
2021/05/05 08:24:17;;;;;;;2.33;0.30;;;17.30;99.90;;;;;;4996698;28;20042;-80
2021/05/05 08:26:45;;;;;;;2.38;0.30;;;17.30;99.90;;;;;;4996865;28;20022;-80
2021/05/05 08:29:13;;;;;;;1.00;0.30;;;17.40;99.90;;;;;;4995049;28;20031;-79
2021/05/05 08:31:40;;;;;;;1.60;0.30;;;17.40;99.90;;;;;;4994088;28;20031;-82
2021/05/05 08:34:08;;;;;;;3.40;0.32;;;17.40;99.90;;;;;;4989777;28;20030;-82
2021/05/05 08:36:35;;;;;;;0.70;0.25;;;17.40;99.90;;;;;;4995687;28;20041;-82
2021/05/05 08:39:06;;;;;;;1.83;0.52;;;17.40;99.90;;;;;;4991084;28;20646;-82
2021/05/05 08:41:34;;;;;;;2.28;0.90;;;17.40;99.90;;;;;;4990377;28;20034;-82
2021/05/05 08:44:01;;;;;;;1.77;0.47;;;17.40;99.90;;;;;;4996285;28;20433;-83
2021/05/05 08:46:29;;;;;;;7.85;1.15;;;17.40;99.90;;;;;;4993033;28;20102;-83
2021/05/05 08:48:57;;;;;;;0.63;0.30;;;17.40;99.90;;;;;;4995147;28;20046;-82
2021/05/05 08:51:25;;;;;;;1.08;0.30;;;17.40;99.90;;;;;;4992719;28;20110;-81
2021/05/05 08:53:53;;;;;;;1.52;0.50;;;17.40;99.90;;;;;;4992575;28;20049;-84
2021/05/05 08:56:20;;;;;;;2.40;0.40;;;17.40;99.90;;;;;;4991194;28;20029;-81
2021/05/05 08:58:48;;;;;;;1.35;0.40;;;17.30;99.90;;;;;;4994023;28;20030;-86
2021/05/05 09:01:15;;;;;;;1.52;0.30;;;17.20;99.90;;;;;;4990578;28;20041;-85
2021/05/05 09:03:49;;;;;;;1.67;0.40;;;17.20;99.90;;;;;;4992236;28;20026;-83
2021/05/05 09:06:17;;;;;;;1.58;0.45;;;17.30;99.90;;;;;;4991835;28;20081;-82
2021/05/05 09:08:49;;;;;;;0.70;0.40;;;17.30;99.90;;;;;;4992512;28;20022;-82
2021/05/05 09:11:16;;;;;;;0.60;0.30;;;17.30;99.90;;;;;;4990189;28;20030;-81
2021/05/05 09:13:53;;;;;;;1.20;0.68;;;17.20;99.90;;;;;;4994367;28;20042;-82
2021/05/05 09:16:31;;;;;;;3.45;0.80;;;17.20;99.90;;;;;;4990195;28;20030;-82
2021/05/05 09:19:03;;;;;;;2.22;1.27;;;17.20;99.90;;;;;;4989524;28;20061;-83
2021/05/05 09:21:37;;;;;;;2.60;0.50;;;17.10;99.90;;;;;;4987592;28;20828;-82
2021/05/05 09:24:29;;;;;;;4.97;0.52;;;17.10;99.90;;;;;;4996806;28;20030;-82
2021/05/05 09:27:06;;;;;;;0.73;0.40;;;17.10;99.90;;;;;;4999417;28;20033;-82
2021/05/05 09:29:51;;;;;;;1.15;0.50;;;17.10;99.90;;;;;;4996291;28;20042;-82
2021/05/05 09:32:21;;;;;;;0.60;0.35;;;17.00;99.90;;;;;;4997049;28;20026;-81
2021/05/05 09:35:04;;;;;;;2.63;0.60;;;17.10;99.90;;;;;;5000629;28;20054;-82
2021/05/05 09:37:33;;;;;;;2.83;0.50;;;17.10;99.90;;;;;;4999649;28;20030;-83
2021/05/05 09:40:10;;;;;;;2.08;0.52;;;17.00;99.90;;;;;;5003455;28;20026;-83
2021/05/05 09:42:38;;;;;;;2.97;0.43;;;17.00;99.90;;;;;;4995531;28;20042;-82
2021/05/05 09:45:12;;;;;;;2.90;0.40;;;17.00;99.90;;;;;;4994396;28;20022;-83
2021/05/05 09:47:55;;;;;;;2.90;0.50;;;17.10;99.90;;;;;;4995687;28;20113;-84
2021/05/05 09:50:44;;;;;;;2.30;0.45;;;17.00;99.90;;;;;;4999347;28;20038;-82
2021/05/05 09:53:25;;;;;;;2.78;0.50;;;17.10;99.90;;;;;;4994507;28;20064;-82
2021/05/05 09:55:58;;;;;;;1.85;0.40;;;17.00;99.90;;;;;;4995631;28;20033;-83
2021/05/05 09:58:31;;;;;;;2.58;0.50;;;17.00;99.90;;;;;;4992340;28;20038;-83
2021/05/05 10:01:10;;;;;;;3.30;0.40;;;17.10;99.90;;;;;;4994845;28;20036;-83
2021/05/05 10:03:39;;;;;;;2.15;0.32;;;17.10;99.90;;;;;;4991400;28;20100;-83
2021/05/05 10:06:20;;;;;;;2.05;0.50;;;17.10;99.90;;;;;;4992287;28;20548;-83
2021/05/05 10:09:07;;;;;;;3.15;0.77;;;17.20;99.90;;;;;;4995270;28;20062;-83
2021/05/05 10:11:40;;;;;;;1.98;0.55;;;17.10;99.90;;;;;;4996660;28;20037;-83
2021/05/05 10:14:11;;;;;;;1.38;0.57;;;17.10;99.90;;;;;;4992766;28;20117;-86
2021/05/05 10:16:44;;;;;;;0.88;0.40;;;17.20;99.90;;;;;;4998327;28;20034;-85
2021/05/05 10:19:21;;;;;;;1.38;0.50;;;17.10;99.90;;;;;;4998050;28;20030;-86
2021/05/05 10:22:06;;;;;;;1.30;0.50;;;17.10;99.90;;;;;;4992476;28;20061;-81
2021/05/05 10:24:39;;;;;;;2.13;0.50;;;17.10;99.90;;;;;;4994235;28;20485;-81
2021/05/05 10:27:07;;;;;;;2.67;0.40;;;17.10;99.90;;;;;;4996564;28;20037;-82
2021/05/05 10:29:36;;;;;;;0.90;0.30;;;17.10;99.90;;;;;;4994168;28;20030;-82
2021/05/05 10:32:07;;;;;;;1.58;0.30;;;17.10;99.90;;;;;;4994730;28;20042;-82
2021/05/05 10:34:36;;;;;;;1.70;0.40;;;17.10;99.90;;;;;;4994286;28;20477;-82
2021/05/05 10:37:05;;;;;;;1.38;0.40;;;17.00;99.90;;;;;;4996618;28;20026;-82
2021/05/05 10:39:44;;;;;;;3.70;0.88;;;17.00;99.90;;;;;;4994441;28;20034;-82
2021/05/05 10:42:19;;;;;;;3.45;0.90;;;17.00;99.90;;;;;;4996306;28;20026;-81
2021/05/05 10:45:00;;;;;;;2.92;1.15;;;17.00;99.90;;;;;;4996654;28;20034;-81
2021/05/05 10:47:34;;;;;;;4.50;0.80;;;16.90;99.90;;;;;;4991349;28;20058;-81
2021/05/05 10:50:13;;;;;;;5.10;0.65;;;16.90;99.90;;;;;;4994418;28;20050;-81
2021/05/05 10:52:43;;;;;;;2.90;0.52;;;16.90;99.90;;;;;;4991880;28;20022;-84
2021/05/05 10:55:13;;;;;;;5.90;0.52;;;16.80;99.90;;;;;;4993508;28;20031;-80
2021/05/05 10:58:05;;;;;;;4.43;0.70;;;16.80;99.90;;;;;;4995780;28;20023;-83
2021/05/05 11:00:52;;;;;;;1.13;0.40;;;16.80;99.90;;;;;;5001251;28;20098;-80
2021/05/05 11:03:45;;;;;;;1.67;0.40;;;16.70;99.90;;;;;;4995920;28;20159;-80
2021/05/05 11:06:35;;;;;;;2.42;0.40;;;16.70;99.90;;;;;;4990337;28;20023;-83
2021/05/05 11:09:11;;;;;;;2.08;0.52;;;16.70;99.90;;;;;;4991448;28;20034;-82
2021/05/05 11:11:45;;;;;;;1.73;0.40;;;16.70;99.90;;;;;;4994050;28;21965;-83
2021/05/05 11:14:24;;;;;;;1.75;0.30;;;16.60;99.90;;;;;;4993456;28;20062;-83
2021/05/05 11:17:09;;;;;;;3.28;1.38;;;16.60;99.90;;;;;;4994794;28;20038;-84
2021/05/05 11:22:05;;;;;;;2.47;0.30;;;16.50;99.90;;;;;;4989203;28;20034;-81
2021/05/05 11:24:38;;;;;;;6.30;0.80;;;16.50;99.90;;;;;;4994763;28;20039;-83
2021/05/05 11:27:11;;;;;;;3.38;0.30;;;16.50;99.90;;;;;;4993452;28;20066;-82
2021/05/05 11:29:42;;;;;;;1.67;0.73;;;16.50;99.90;;;;;;5000854;28;20026;-81
2021/05/05 11:32:16;;;;;;;3.15;0.50;;;16.50;99.90;;;;;;5002461;28;20056;-83
2021/05/05 11:34:48;;;;;;;1.42;0.50;;;16.50;99.90;;;;;;4994720;28;20038;-84
2021/05/05 11:37:16;;;;;;;3.78;0.50;;;16.50;99.90;;;;;;4989907;28;20034;-83
2021/05/05 11:39:55;;;;;;;4.80;0.70;;;16.40;99.90;;;;;;4993880;28;20026;-83
2021/05/05 11:42:34;;;;;;;0.73;0.30;;;16.40;99.90;;;;;;4996668;28;20040;-83
2021/05/05 11:45:10;;;;;;;3.65;0.50;;;16.40;99.90;;;;;;4994355;28;20033;-81
2021/05/05 11:47:41;;;;;;;4.43;0.50;;;16.50;99.90;;;;;;4994171;28;20049;-83
2021/05/05 11:50:11;;;;;;;2.58;0.30;;;16.50;99.90;;;;;;4995251;28;20050;-83
2021/05/05 11:52:39;;;;;;;4.28;0.60;;;16.50;99.90;;;;;;4990688;28;20030;-83
2021/05/05 11:55:09;;;;;;;3.13;0.73;;;16.50;99.90;;;;;;4994401;28;20034;-83
2021/05/05 11:57:47;;;;;;;4.28;0.57;;;16.60;99.90;;;;;;4999457;28;20035;-80
2021/05/05 12:00:29;;;;;;;5.20;1.05;;;16.60;99.90;;;;;;4994516;28;20034;-83
2021/05/05 12:02:59;;;;;;;1.88;0.45;;;16.60;99.90;;;;;;4990742;28;20033;-82
2021/05/05 12:05:33;;;;;;;2.05;0.60;;;16.70;99.90;;;;;;4991162;28;20085;-81
2021/05/05 12:08:06;;;;;;;0.90;0.32;;;16.70;99.90;;;;;;4994191;28;20023;-82
2021/05/05 12:10:56;;;;;;;1.50;0.60;;;16.70;99.90;;;;;;4997968;28;20021;-83
2021/05/05 12:13:30;;;;;;;4.57;0.40;;;16.70;99.90;;;;;;4995146;28;20096;-82
2021/05/05 12:16:07;;;;;;;2.58;0.50;;;16.70;99.90;;;;;;4991255;28;20180;-80
2021/05/05 12:18:45;;;;;;;3.53;0.50;;;16.70;99.90;;;;;;4988881;28;20023;-82
2021/05/05 12:21:14;;;;;;;3.63;0.40;;;16.70;99.90;;;;;;4995470;28;20075;-81
2021/05/05 12:23:47;;;;;;;4.07;0.70;;;16.70;99.90;;;;;;4990517;28;20038;-81
2021/05/05 12:26:22;;;;;;;4.28;0.50;;;16.70;99.90;;;;;;4992365;28;20034;-82
2021/05/05 12:28:50;;;;;;;3.45;0.70;;;16.70;99.90;;;;;;4993505;28;20073;-82
2021/05/05 12:31:26;;;;;;;2.83;0.93;;;16.70;99.90;;;;;;4988713;28;20477;-82
2021/05/05 12:33:54;;;;;;;4.95;0.75;;;16.70;99.90;;;;;;4992202;28;20037;-82
2021/05/05 12:36:23;;;;;;;1.92;0.35;;;16.70;99.90;;;;;;4990250;28;20368;-82
2021/05/05 12:38:59;;;;;;;1.83;0.35;;;16.70;99.90;;;;;;4990839;28;20382;-82
2021/05/05 12:41:48;;;;;;;3.70;0.55;;;16.70;99.90;;;;;;4994987;28;20832;-79
2021/05/05 12:44:16;;;;;;;3.42;0.40;;;16.70;99.90;;;;;;4991764;28;20124;-82
2021/05/05 12:46:55;;;;;;;5.88;0.60;;;16.70;99.90;;;;;;4994863;28;20030;-83
2021/05/05 12:49:37;;;;;;;4.47;0.95;;;16.70;99.90;;;;;;4980033;28;20369;-83
2021/05/05 12:52:27;;;;;;;3.67;1.10;;;16.70;99.90;;;;;;4991721;28;20089;-82
2021/05/05 12:54:57;;;;;;;2.92;0.68;;;16.70;99.90;;;;;;4993834;28;20050;-81
2021/05/05 12:57:25;;;;;;;3.15;0.60;;;16.60;99.90;;;;;;4996603;28;20568;-80
2021/05/05 12:59:54;;;;;;;4.10;0.40;;;16.60;99.90;;;;;;4995823;28;20022;-84
2021/05/05 13:02:28;;;;;;;3.42;0.60;;;16.50;99.90;;;;;;4994824;28;20026;-81
2021/05/05 13:05:09;;;;;;;6.10;0.70;;;16.50;99.90;;;;;;4999419;28;20030;-83
2021/05/05 13:07:43;;;;;;;5.57;1.10;;;16.50;99.90;;;;;;4995825;28;20385;-81
2021/05/05 13:10:19;;;;;;;5.50;0.75;;;16.50;99.90;;;;;;4998847;28;20034;-77
2021/05/05 13:32:51;;;;;;;6.32;0.68;;;16.50;99.90;;;;;;4994502;28;20476;-79
2021/05/05 13:35:22;;;;;;;4.97;0.50;;;16.50;99.90;;;;;;4997502;28;20785;-80
2021/05/05 13:38:04;;;;;;;3.17;0.35;;;16.50;99.90;;;;;;5001331;28;20539;-81